Time;durP1;ratioP1;P1;durP2;ratioP2;P2;SDS_P1;SDS_P2;PMS_P1;PMS_P2;Temp;Humidity;BMP_temperature;BMP_pressure;BME280_temperature;BME280_humidity;BME280_pressure;Samples;Min_cycle;Max_cycle;Signal;HPM_P1;HPM_P2
2022/08/28 00:01:34;;;;;;;;;;;;;;;;;;4864770;29;19944;-72
2022/08/28 00:04:01;;;;;;;;;;;;;;;;;;4850973;29;19932;-72
2022/08/28 00:06:29;;;;;;;;;;;;;;;;;;4849415;29;20140;-72
2022/08/28 00:08:56;;;;;;;;;;;;;;;;;;4852711;29;19975;-72
2022/08/28 00:11:23;;;;;;;;;;;;;;;;;;4850873;29;19932;-72
2022/08/28 00:13:50;;;;;;;;;;;;;;;;;;4849971;29;19932;-72
2022/08/28 00:16:18;;;;;;;;;;;;;;;;;;4845585;29;20127;-73
2022/08/28 00:18:45;;;;;;;;;;;;;;;;;;4848853;29;20308;-73
2022/08/28 00:21:13;;;;;;;;;;;;;;;;;;4851411;29;20388;-73
2022/08/28 00:23:42;;;;;;;;;;;;;;;;;;4847753;29;20301;-73
2022/08/28 00:26:09;;;;;;;;;;;;;;;;;;4849144;29;19961;-72
2022/08/28 00:28:36;;;;;;;;;;;;;;;;;;4848513;29;20408;-72
2022/08/28 00:31:04;;;;;;;;;;;;;;;;;;4852098;29;19939;-72
2022/08/28 00:33:31;;;;;;;;;;;;;;;;;;4852309;29;19932;-72
2022/08/28 00:35:59;;;;;;;;;;;;;;;;;;4852873;29;19928;-72
2022/08/28 00:38:27;;;;;;;;;;;;;;;;;;4853902;29;19940;-72
2022/08/28 00:40:54;;;;;;;;;;;;;;;;;;4854535;29;20513;-72
2022/08/28 00:43:21;;;;;;;;;;;;;;;;;;4852862;29;20304;-72
2022/08/28 00:45:48;;;;;;;;;;;;;;;;;;4853705;29;19939;-72
2022/08/28 00:48:16;;;;;;;;;;;;;;;;;;4851519;29;20399;-72
2022/08/28 00:53:30;;;;;;;;;;;;;;;;;;4852448;29;19936;-72
2022/08/28 00:55:59;;;;;;;;;;;;;;;;;;4853408;29;19932;-72
2022/08/28 00:58:26;;;;;;;;;;;;;;;;;;4852173;29;20316;-72
2022/08/28 01:00:53;;;;;;;;;;;;;;;;;;4854611;29;20574;-73
2022/08/28 01:03:21;;;;;;;;;;;;;;;;;;4853739;29;20412;-72
2022/08/28 01:05:51;;;;;;;;;;;;;;;;;;4852409;29;19932;-72
2022/08/28 01:08:18;;;;;;;;;;;;;;;;;;4856241;29;20262;-72
2022/08/28 01:10:45;;;;;;;;;;;;;;;;;;4854739;29;19971;-72
2022/08/28 01:13:12;;;;;;;;;;;;;;;;;;4854360;29;19932;-72
2022/08/28 01:15:41;;;;;;;;;;;;;;;;;;4853682;29;19932;-72
2022/08/28 01:18:08;;;;;;;;;;;;;;;;;;4854692;29;20365;-72
2022/08/28 01:20:36;;;;;;;;;;;;;;;;;;4853346;29;20158;-72
2022/08/28 01:23:03;;;;;;;;;;;;;;;;;;4853763;29;19928;-72
2022/08/28 01:25:31;;;;;;;;;;;;;;;;;;4853131;29;19991;-72
2022/08/28 01:27:58;;;;;;;;;;;;;;;;;;4853550;29;20408;-73
2022/08/28 01:30:25;;;;;;;;;;;;;;;;;;4853357;29;20026;-73
2022/08/28 01:32:53;;;;;;;;;;;;;;;;;;4854252;29;19932;-73
2022/08/28 01:35:20;;;;;;;;;;;;;;;;;;4852400;29;19932;-73
2022/08/28 01:37:47;;;;;;;;;;;;;;;;;;4851090;29;19929;-72
2022/08/28 01:40:16;;;;;;;;;;;;;;;;;;4851740;29;19932;-73
2022/08/28 01:42:43;;;;;;;;;;;;;;;;;;4868485;29;20357;-73
2022/08/28 01:45:10;;;;;;;;;;;;;;;;;;4851698;29;19936;-73
2022/08/28 01:47:38;;;;;;;;;;;;;;;;;;4867148;29;20002;-72
2022/08/28 01:50:05;;;;;;;;;;;;;;;;;;4852525;29;20004;-72
2022/08/28 01:52:32;;;;;;;;;;;;;;;;;;4852578;29;20031;-73
2022/08/28 01:54:59;;;;;;;;;;;;;;;;;;4863515;29;19932;-73
2022/08/28 01:57:27;;;;;;;;;;;;;;;;;;4849232;29;20212;-72
2022/08/28 01:59:54;;;;;;;;;;;;;;;;;;4852932;29;19928;-72
2022/08/28 02:02:21;;;;;;;;;;;;;;;;;;4853368;29;19939;-72
2022/08/28 02:04:49;;;;;;;;;;;;;;;;;;4852945;29;19932;-72
2022/08/28 02:07:16;;;;;;;;;;;;;;;;;;4850647;29;19947;-72
2022/08/28 02:09:44;;;;;;;;;;;;;;;;;;4848449;29;19943;-72
2022/08/28 02:12:11;;;;;;;;;;;;;;;;;;4847338;29;20188;-72
2022/08/28 02:14:38;;;;;;;;;;;;;;;;;;4853050;29;20288;-72
2022/08/28 02:17:05;;;;;;;;;;;;;;;;;;4853351;29;19928;-72
2022/08/28 02:19:33;;;;;;;;;;;;;;;;;;4851404;29;19939;-72
2022/08/28 02:22:00;;;;;;;;;;;;;;;;;;4850486;29;20027;-72
2022/08/28 02:24:28;;;;;;;;;;;;;;;;;;4848435;29;20358;-73
2022/08/28 02:26:55;;;;;;;;;;;;;;;;;;4850184;29;19934;-72
2022/08/28 02:29:22;;;;;;;;;;;;;;;;;;4848450;29;21182;-73
2022/08/28 02:31:50;;;;;;;;;;;;;;;;;;4865721;29;19928;-73
2022/08/28 02:34:17;;;;;;;;;;;;;;;;;;4844763;29;19936;-72
2022/08/28 02:36:44;;;;;;;;;;;;;;;;;;4851829;29;20305;-72
2022/08/28 02:39:11;;;;;;;;;;;;;;;;;;4852918;29;19952;-73
2022/08/28 02:41:39;;;;;;;;;;;;;;;;;;4850721;29;20387;-72
2022/08/28 02:44:06;;;;;;;;;;;;;;;;;;4849705;29;20416;-72
2022/08/28 02:46:33;;;;;;;;;;;;;;;;;;4863806;29;20040;-72
2022/08/28 02:49:01;;;;;;;;;;;;;;;;;;4852248;29;19936;-73
2022/08/28 02:51:28;;;;;;;;;;;;;;;;;;4849663;29;20255;-72
2022/08/28 02:53:55;;;;;;;;;;;;;;;;;;4851591;29;19971;-72
2022/08/28 02:56:23;;;;;;;;;;;;;;;;;;4847076;29;19936;-72
2022/08/28 02:58:50;;;;;;;;;;;;;;;;;;4865649;29;20300;-72
2022/08/28 03:01:18;;;;;;;;;;;;;;;;;;4849787;29;20419;-72
2022/08/28 03:03:45;;;;;;;;;;;;;;;;;;4852254;29;19928;-72
2022/08/28 03:06:12;;;;;;;;;;;;;;;;;;4849184;29;19932;-72
2022/08/28 03:08:40;;;;;;;;;;;;;;;;;;4871147;29;19932;-72
2022/08/28 03:11:07;;;;;;;;;;;;;;;;;;4848449;29;19938;-73
2022/08/28 03:13:35;;;;;;;;;;;;;;;;;;4840579;29;19952;-73
2022/08/28 03:16:03;;;;;;;;;;;;;;;;;;4843939;29;20399;-73
2022/08/28 03:18:31;;;;;;;;;;;;;;;;;;4848137;29;20035;-73
2022/08/28 03:20:59;;;;;;;;;;;;;;;;;;4850201;29;20411;-73
2022/08/28 03:23:26;;;;;;;;;;;;;;;;;;4851360;29;19932;-73
2022/08/28 03:25:53;;;;;;;;;;;;;;;;;;4842535;29;20393;-73
2022/08/28 03:28:21;;;;;;;;;;;;;;;;;;4842904;29;20004;-73
2022/08/28 03:30:49;;;;;;;;;;;;;;;;;;4839218;29;20087;-72
2022/08/28 03:33:16;;;;;;;;;;;;;;;;;;4846648;29;20028;-72
2022/08/28 03:35:43;;;;;;;;;;;;;;;;;;4850114;29;19932;-72
2022/08/28 03:38:11;;;;;;;;;;;;;;;;;;4847427;29;20026;-72
2022/08/28 03:40:39;;;;;;;;;;;;;;;;;;4850984;29;19929;-72
2022/08/28 03:43:06;;;;;;;;;;;;;;;;;;4849919;29;20533;-72
2022/08/28 03:45:33;;;;;;;;;;;;;;;;;;4864136;29;20427;-72
2022/08/28 03:48:00;;;;;;;;;;;;;;;;;;4851685;29;20439;-72
2022/08/28 03:50:28;;;;;;;;;;;;;;;;;;4849743;29;19938;-72
2022/08/28 03:52:55;;;;;;;;;;;;;;;;;;4847969;29;20397;-72
2022/08/28 03:55:23;;;;;;;;;;;;;;;;;;4851257;29;20468;-72
2022/08/28 03:57:50;;;;;;;;;;;;;;;;;;4851410;29;19980;-72
2022/08/28 04:00:19;;;;;;;;;;;;;;;;;;4850590;29;19936;-72
2022/08/28 04:02:46;;;;;;;;;;;;;;;;;;4849670;29;19936;-72
2022/08/28 04:05:16;;;;;;;;;;;;;;;;;;4852235;29;19928;-72
2022/08/28 04:07:44;;;;;;;;;;;;;;;;;;4848357;29;19966;-73
2022/08/28 04:10:11;;;;;;;;;;;;;;;;;;4851565;29;19936;-73
2022/08/28 04:12:38;;;;;;;;;;;;;;;;;;4848339;29;20320;-73
2022/08/28 04:15:06;;;;;;;;;;;;;;;;;;4846300;29;19939;-73
2022/08/28 04:17:33;;;;;;;;;;;;;;;;;;4854253;29;20003;-73
2022/08/28 04:20:00;;;;;;;;;;;;;;;;;;4853509;29;19928;-73
2022/08/28 04:22:29;;;;;;;;;;;;;;;;;;4848802;29;20031;-72
2022/08/28 04:24:56;;;;;;;;;;;;;;;;;;4935675;23;20377;-90
2022/08/28 04:27:23;;;;;;;;;;;;;;;;;;4884853;29;19978;-91
2022/08/28 04:29:50;;;;;;;;;;;;;;;;;;4899796;29;19927;-91
2022/08/28 04:32:18;;;;;;;;;;;;;;;;;;4897630;29;19927;-92
2022/08/28 04:34:45;;;;;;;;;;;;;;;;;;4897141;29;19959;-91
2022/08/28 04:37:12;;;;;;;;;;;;;;;;;;4915292;23;19950;-75
2022/08/28 04:39:40;;;;;;;;;;;;;;;;;;4908332;29;19935;-75
2022/08/28 04:42:07;;;;;;;;;;;;;;;;;;4922402;29;21082;-75
2022/08/28 04:44:34;;;;;;;;;;;;;;;;;;4909969;29;19931;-75
2022/08/28 04:47:01;;;;;;;;;;;;;;;;;;4904414;29;20018;-74
2022/08/28 04:49:29;;;;;;;;;;;;;;;;;;4907124;29;20388;-74
2022/08/28 04:51:56;;;;;;;;;;;;;;;;;;4892107;29;20483;-75
2022/08/28 04:54:24;;;;;;;;;;;;;;;;;;4907278;29;19927;-75
2022/08/28 04:56:51;;;;;;;;;;;;;;;;;;4905432;29;20046;-74
2022/08/28 04:59:18;;;;;;;;;;;;;;;;;;4902918;29;20366;-74
2022/08/28 05:01:46;;;;;;;;;;;;;;;;;;4902699;29;20030;-74
2022/08/28 05:04:13;;;;;;;;;;;;;;;;;;4910263;29;19927;-75
2022/08/28 05:06:44;;;;;;;;;;;;;;;;;;4907186;29;19935;-75
2022/08/28 05:09:12;;;;;;;;;;;;;;;;;;4905357;29;20149;-76
2022/08/28 05:11:39;;;;;;;;;;;;;;;;;;4898290;29;19931;-75
2022/08/28 05:14:13;;;;;;;;;;;;;;;;;;4901740;29;20380;-74
2022/08/28 05:16:42;;;;;;;;;;;;;;;;;;4908775;29;20027;-75
2022/08/28 05:19:10;;;;;;;;;;;;;;;;;;4906865;29;19931;-74
2022/08/28 05:21:37;;;;;;;;;;;;;;;;;;4899372;29;19966;-75
2022/08/28 05:24:05;;;;;;;;;;;;;;;;;;4909396;29;20268;-75
2022/08/28 05:26:32;;;;;;;;;;;;;;;;;;4903144;29;19987;-75
2022/08/28 05:28:59;;;;;;;;;;;;;;;;;;4905305;29;20045;-75
2022/08/28 05:31:27;;;;;;;;;;;;;;;;;;4910618;29;20426;-74
2022/08/28 05:33:55;;;;;;;;;;;;;;;;;;4909610;29;19931;-76
2022/08/28 05:36:22;;;;;;;;;;;;;;;;;;4909268;29;20324;-75
2022/08/28 05:38:51;;;;;;;;;;;;;;;;;;4909713;29;19974;-75
2022/08/28 05:41:20;;;;;;;;;;;;;;;;;;4911090;29;19938;-74
2022/08/28 05:43:48;;;;;;;;;;;;;;;;;;4907442;29;19927;-75
2022/08/28 05:46:16;;;;;;;;;;;;;;;;;;4904242;29;19962;-75
2022/08/28 05:48:44;;;;;;;;;;;;;;;;;;4903778;29;20400;-75
2022/08/28 05:51:11;;;;;;;;;;;;;;;;;;4894601;29;20022;-76
2022/08/28 05:53:41;;;;;;;;;;;;;;;;;;4906623;29;19938;-76
2022/08/28 05:56:09;;;;;;;;;;;;;;;;;;4911135;29;20213;-76
2022/08/28 05:58:38;;;;;;;;;;;;;;;;;;4908797;29;19935;-77
2022/08/28 06:01:06;;;;;;;;;;;;;;;;;;4912338;29;20367;-77
2022/08/28 06:03:33;;;;;;;;;;;;;;;;;;4909003;29;19938;-77
2022/08/28 06:06:01;;;;;;;;;;;;;;;;;;4915592;29;19991;-77
2022/08/28 06:08:28;;;;;;;;;;;;;;;;;;4917012;29;19957;-75
2022/08/28 06:10:56;;;;;;;;;;;;;;;;;;4906598;29;19937;-74
2022/08/28 06:13:24;;;;;;;;;;;;;;;;;;4915022;29;20158;-73
2022/08/28 06:15:51;;;;;;;;;;;;;;;;;;4898716;29;19938;-72
2022/08/28 06:18:19;;;;;;;;;;;;;;;;;;4917590;29;19931;-72
2022/08/28 06:20:46;;;;;;;;;;;;;;;;;;4906760;29;20837;-74
2022/08/28 06:23:14;;;;;;;;;;;;;;;;;;4886946;29;19931;-73
2022/08/28 06:25:44;;;;;;;;;;;;;;;;;;4898445;29;19963;-73
2022/08/28 06:28:11;;;;;;;;;;;;;;;;;;4890992;29;19938;-73
2022/08/28 06:30:39;;;;;;;;;;;;;;;;;;4904130;29;20367;-73
2022/08/28 06:33:19;;;;;;;;;;;;;;;;;;4910054;29;19927;-73
2022/08/28 06:35:47;;;;;;;;;;;;;;;;;;4906318;28;20020;-73
2022/08/28 06:38:15;;;;;;;;;;;;;;;;;;4904451;29;19931;-73
2022/08/28 06:40:42;;;;;;;;;;;;;;;;;;4908905;29;20374;-73
2022/08/28 06:43:09;;;;;;;;;;;;;;;;;;4904053;29;20476;-72
2022/08/28 06:45:37;;;;;;;;;;;;;;;;;;4890950;29;20026;-74
2022/08/28 06:48:04;;;;;;;;;;;;;;;;;;4890267;29;19931;-74
2022/08/28 06:50:32;;;;;;;;;;;;;;;;;;4891288;29;20084;-73
2022/08/28 06:53:00;;;;;;;;;;;;;;;;;;4894005;29;19927;-74
2022/08/28 06:55:27;;;;;;;;;;;;;;;;;;4905965;29;20339;-73
2022/08/28 06:57:54;;;;;;;;;;;;;;;;;;4908970;29;19938;-73
2022/08/28 07:00:22;;;;;;;;;;;;;;;;;;4908307;29;20045;-73
2022/08/28 07:02:49;;;;;;;;;;;;;;;;;;4910613;29;19935;-72
2022/08/28 07:05:16;;;;;;;;;;;;;;;;;;4910645;29;19998;-72
2022/08/28 07:07:44;;;;;;;;;;;;;;;;;;4909896;29;19935;-73
2022/08/28 07:10:11;;;;;;;;;;;;;;;;;;4911378;29;19931;-71
2022/08/28 07:12:39;;;;;;;;;;;;;;;;;;4911673;29;19981;-72
2022/08/28 07:15:06;;;;;;;;;;;;;;;;;;4911561;29;19935;-73
2022/08/28 07:17:34;;;;;;;;;;;;;;;;;;4911297;29;19931;-72
2022/08/28 07:20:02;;;;;;;;;;;;;;;;;;4911307;29;19931;-73
2022/08/28 07:22:30;;;;;;;;;;;;;;;;;;4913402;29;19935;-74
2022/08/28 07:24:57;;;;;;;;;;;;;;;;;;4913002;29;19931;-74
2022/08/28 07:27:24;;;;;;;;;;;;;;;;;;4911543;29;19931;-71
2022/08/28 07:29:52;;;;;;;;;;;;;;;;;;4914660;29;19927;-72
2022/08/28 07:32:22;;;;;;;;;;;;;;;;;;4899522;29;19927;-73
2022/08/28 07:34:50;;;;;;;;;;;;;;;;;;4890895;29;20447;-74
2022/08/28 07:37:17;;;;;;;;;;;;;;;;;;4890417;29;19932;-72
2022/08/28 07:39:44;;;;;;;;;;;;;;;;;;4895894;29;19991;-73
2022/08/28 07:44:47;;;;;;;;;;;;;;;;;;4918500;29;19938;-72
2022/08/28 07:45:02;;;;;;;;;;;;;;;;;;4896332;29;19931;-73
2022/08/28 07:47:32;;;;;;;;;;;;;;;;;;4894130;29;19959;-72
2022/08/28 07:50:00;;;;;;;;;;;;;;;;;;4901724;29;19938;-71
2022/08/28 07:52:28;;;;;;;;;;;;;;;;;;4911765;29;19935;-72
2022/08/28 07:54:56;;;;;;;;;;;;;;;;;;4910517;29;19930;-71
2022/08/28 07:57:23;;;;;;;;;;;;;;;;;;4912167;29;20116;-73
2022/08/28 07:59:51;;;;;;;;;;;;;;;;;;4913981;29;19935;-71
2022/08/28 08:02:18;;;;;;;;;;;;;;;;;;4912122;29;19931;-72
2022/08/28 08:04:46;;;;;;;;;;;;;;;;;;4912464;29;20535;-73
2022/08/28 08:07:13;;;;;;;;;;;;;;;;;;4912305;29;19927;-72
2022/08/28 08:09:41;;;;;;;;;;;;;;;;;;4900770;29;20109;-73
2022/08/28 08:12:09;;;;;;;;;;;;;;;;;;4899913;29;19927;-72
2022/08/28 08:14:36;;;;;;;;;;;;;;;;;;4894963;29;20050;-71
2022/08/28 08:17:04;;;;;;;;;;;;;;;;;;4895423;29;19963;-73
2022/08/28 08:19:31;;;;;;;;;;;;;;;;;;4895713;29;19942;-72
2022/08/28 08:21:58;;;;;;;;;;;;;;;;;;4895137;29;19931;-70
2022/08/28 08:24:27;;;;;;;;;;;;;;;;;;4908816;29;20009;-74
2022/08/28 08:26:54;;;;;;;;;;;;;;;;;;4914403;29;19927;-72
2022/08/28 08:29:26;;;;;;;;;;;;;;;;;;4916404;29;20433;-72
2022/08/28 08:31:53;;;;;;;;;;;;;;;;;;4918874;29;19931;-71
2022/08/28 08:34:20;;;;;;;;;;;;;;;;;;4907187;29;19928;-72
2022/08/28 08:36:49;;;;;;;;;;;;;;;;;;4900587;29;19955;-72
2022/08/28 08:39:16;;;;;;;;;;;;;;;;;;4900311;29;19932;-73
2022/08/28 08:41:46;;;;;;;;;;;;;;;;;;4898913;29;19950;-72
2022/08/28 08:44:14;;;;;;;;;;;;;;;;;;4899584;29;20452;-73
2022/08/28 08:46:41;;;;;;;;;;;;;;;;;;4895679;29;19935;-73
2022/08/28 08:49:09;;;;;;;;;;;;;;;;;;4915924;29;19935;-74
2022/08/28 08:51:37;;;;;;;;;;;;;;;;;;4912723;29;19938;-72
2022/08/28 08:54:04;;;;;;;;;;;;;;;;;;4901786;29;19931;-73
2022/08/28 08:56:32;;;;;;;;;;;;;;;;;;4916435;29;19935;-73
2022/08/28 08:59:00;;;;;;;;;;;;;;;;;;4919107;29;20323;-74
2022/08/28 09:01:30;;;;;;;;;;;;;;;;;;4919181;29;19994;-74
2022/08/28 09:03:58;;;;;;;;;;;;;;;;;;4919588;29;19931;-76
2022/08/28 09:06:28;;;;;;;;;;;;;;;;;;4903173;29;19938;-76
2022/08/28 09:08:56;;;;;;;;;;;;;;;;;;4911050;29;19928;-73
2022/08/28 09:11:23;;;;;;;;;;;;;;;;;;4908797;29;20216;-74
2022/08/28 09:13:50;;;;;;;;;;;;;;;;;;4903592;29;19932;-76
2022/08/28 09:16:18;;;;;;;;;;;;;;;;;;4900697;29;20011;-76
2022/08/28 09:18:46;;;;;;;;;;;;;;;;;;4902787;29;19927;-76
2022/08/28 09:21:14;;;;;;;;;;;;;;;;;;4903626;29;19954;-75
2022/08/28 09:23:41;;;;;;;;;;;;;;;;;;4911730;29;20011;-75
2022/08/28 09:26:12;;;;;;;;;;;;;;;;;;4921464;29;19934;-75
2022/08/28 09:28:39;;;;;;;;;;;;;;;;;;4921059;29;19990;-75
2022/08/28 09:31:07;;;;;;;;;;;;;;;;;;4921852;29;19962;-77
2022/08/28 09:33:34;;;;;;;;;;;;;;;;;;4921573;29;20003;-75
2022/08/28 09:36:01;;;;;;;;;;;;;;;;;;4920457;29;19934;-75
2022/08/28 09:38:29;;;;;;;;;;;;;;;;;;4919935;29;19958;-74
2022/08/28 09:43:43;;;;;;;;;;;;;;;;;;4918587;29;19935;-75
2022/08/28 09:46:10;;;;;;;;;;;;;;;;;;4899072;29;20380;-76
2022/08/28 09:48:38;;;;;;;;;;;;;;;;;;4905630;29;19937;-76
2022/08/28 09:51:05;;;;;;;;;;;;;;;;;;4911689;29;19931;-76
2022/08/28 09:53:33;;;;;;;;;;;;;;;;;;4917248;29;19966;-75
2022/08/28 09:56:01;;;;;;;;;;;;;;;;;;4915370;29;19934;-75
2022/08/28 09:58:28;;;;;;;;;;;;;;;;;;4922612;29;20541;-75
2022/08/28 10:00:56;;;;;;;;;;;;;;;;;;4912741;29;20462;-75
2022/08/28 10:03:23;;;;;;;;;;;;;;;;;;4914966;29;19927;-75
2022/08/28 10:05:51;;;;;;;;;;;;;;;;;;4911185;29;19938;-75
2022/08/28 10:08:18;;;;;;;;;;;;;;;;;;4907689;29;20283;-75
2022/08/28 10:10:46;;;;;;;;;;;;;;;;;;4907878;29;19974;-74
2022/08/28 10:13:14;;;;;;;;;;;;;;;;;;4912511;29;19927;-74
2022/08/28 10:15:41;;;;;;;;;;;;;;;;;;4905183;29;20436;-73
2022/08/28 10:18:09;;;;;;;;;;;;;;;;;;4908168;29;19938;-73
2022/08/28 10:20:37;;;;;;;;;;;;;;;;;;4910815;29;20674;-75
2022/08/28 10:23:04;;;;;;;;;;;;;;;;;;4915279;29;19931;-74
2022/08/28 10:25:31;;;;;;;;;;;;;;;;;;4916409;29;19935;-75
2022/08/28 10:27:59;;;;;;;;;;;;;;;;;;4915743;29;20395;-75
2022/08/28 10:30:26;;;;;;;;;;;;;;;;;;4915705;29;20023;-75
2022/08/28 10:32:57;;;;;;;;;;;;;;;;;;4916579;29;19950;-74
2022/08/28 10:35:24;;;;;;;;;;;;;;;;;;4915524;29;20042;-75
2022/08/28 10:37:51;;;;;;;;;;;;;;;;;;4918840;29;19931;-75
2022/08/28 10:40:19;;;;;;;;;;;;;;;;;;4919414;29;19938;-74
2022/08/28 10:42:46;;;;;;;;;;;;;;;;;;4918859;29;19935;-74
2022/08/28 10:45:14;;;;;;;;;;;;;;;;;;4918971;29;19998;-75
2022/08/28 10:47:41;;;;;;;;;;;;;;;;;;4920169;29;19970;-75
2022/08/28 10:50:08;;;;;;;;;;;;;;;;;;4919597;29;20395;-75
2022/08/28 10:52:36;;;;;;;;;;;;;;;;;;4921191;29;19954;-74
2022/08/28 10:55:03;;;;;;;;;;;;;;;;;;4921548;29;19998;-74
2022/08/28 10:57:30;;;;;;;;;;;;;;;;;;4904600;29;19937;-74
2022/08/28 11:00:02;;;;;;;;;;;;;;;;;;4920366;29;19935;-77
2022/08/28 11:02:29;;;;;;;;;;;;;;;;;;4922359;29;20354;-75
2022/08/28 11:04:57;;;;;;;;;;;;;;;;;;4920646;29;19931;-76
2022/08/28 11:07:25;;;;;;;;;;;;;;;;;;4920179;29;20428;-76
2022/08/28 11:09:52;;;;;;;;;;;;;;;;;;4921749;29;19950;-77
2022/08/28 11:12:19;;;;;;;;;;;;;;;;;;4905156;29;19967;-76
2022/08/28 11:14:47;;;;;;;;;;;;;;;;;;4919617;29;19960;-74
2022/08/28 11:17:15;;;;;;;;;;;;;;;;;;4921159;29;20051;-75
2022/08/28 11:19:42;;;;;;;;;;;;;;;;;;4919573;29;19927;-75
2022/08/28 11:22:11;;;;;;;;;;;;;;;;;;4920986;29;20534;-76
2022/08/28 11:24:39;;;;;;;;;;;;;;;;;;4920357;29;19931;-76
2022/08/28 11:27:09;;;;;;;;;;;;;;;;;;4918810;29;19935;-76
2022/08/28 11:29:37;;;;;;;;;;;;;;;;;;4918598;29;19931;-76
2022/08/28 11:32:04;;;;;;;;;;;;;;;;;;4918664;29;19931;-77
2022/08/28 11:34:32;;;;;;;;;;;;;;;;;;4919914;29;20571;-77
2022/08/28 11:36:59;;;;;;;;;;;;;;;;;;4918136;29;19969;-77
2022/08/28 11:39:27;;;;;;;;;;;;;;;;;;4918302;29;19962;-77
2022/08/28 11:41:54;;;;;;;;;;;;;;;;;;4918917;29;20364;-77
2022/08/28 11:44:22;;;;;;;;;;;;;;;;;;4919080;29;20015;-76
2022/08/28 11:46:49;;;;;;;;;;;;;;;;;;4919516;29;20025;-77
2022/08/28 11:49:17;;;;;;;;;;;;;;;;;;4918028;29;19930;-77
2022/08/28 11:51:44;;;;;;;;;;;;;;;;;;4918793;29;20311;-75
2022/08/28 11:54:12;;;;;;;;;;;;;;;;;;4920931;29;19938;-78
2022/08/28 11:56:39;;;;;;;;;;;;;;;;;;4920308;29;19998;-77
2022/08/28 11:59:07;;;;;;;;;;;;;;;;;;4922524;29;19931;-78
2022/08/28 12:01:34;;;;;;;;;;;;;;;;;;4923434;29;19928;-76
2022/08/28 12:04:03;;;;;;;;;;;;;;;;;;4920640;29;19938;-73
2022/08/28 12:06:34;;;;;;;;;;;;;;;;;;4916930;29;20471;-75
2022/08/28 12:09:01;;;;;;;;;;;;;;;;;;4915579;29;19930;-72
2022/08/28 12:11:29;;;;;;;;;;;;;;;;;;4914195;29;19971;-73
2022/08/28 12:13:56;;;;;;;;;;;;;;;;;;4920183;29;20348;-71
2022/08/28 12:16:23;;;;;;;;;;;;;;;;;;4914468;29;19952;-70
2022/08/28 12:18:51;;;;;;;;;;;;;;;;;;4911748;29;19951;-72
2022/08/28 12:21:18;;;;;;;;;;;;;;;;;;4911633;29;19964;-74
2022/08/28 12:23:45;;;;;;;;;;;;;;;;;;4911146;29;19930;-73
2022/08/28 12:26:13;;;;;;;;;;;;;;;;;;4917193;29;19927;-72
2022/08/28 12:28:41;;;;;;;;;;;;;;;;;;4918803;29;20058;-72
2022/08/28 12:31:08;;;;;;;;;;;;;;;;;;4916736;29;19975;-73
2022/08/28 12:33:36;;;;;;;;;;;;;;;;;;4921026;29;20391;-74
2022/08/28 12:36:04;;;;;;;;;;;;;;;;;;4922886;29;19998;-76
2022/08/28 12:38:31;;;;;;;;;;;;;;;;;;4910829;29;19935;-74
2022/08/28 12:40:59;;;;;;;;;;;;;;;;;;4912697;29;19938;-74
2022/08/28 12:43:26;;;;;;;;;;;;;;;;;;4915535;29;19927;-76
2022/08/28 12:45:54;;;;;;;;;;;;;;;;;;4913928;29;20296;-74
2022/08/28 12:48:22;;;;;;;;;;;;;;;;;;4912670;29;19978;-74
2022/08/28 12:50:49;;;;;;;;;;;;;;;;;;4903673;29;20608;-73
2022/08/28 12:53:17;;;;;;;;;;;;;;;;;;4918755;29;19947;-74
2022/08/28 12:55:44;;;;;;;;;;;;;;;;;;4915408;29;20014;-72
2022/08/28 12:58:12;;;;;;;;;;;;;;;;;;4922742;29;19953;-76
2022/08/28 13:00:39;;;;;;;;;;;;;;;;;;4923755;29;19931;-76
2022/08/28 13:03:07;;;;;;;;;;;;;;;;;;4915204;29;20002;-75
2022/08/28 13:05:34;;;;;;;;;;;;;;;;;;4912265;29;19935;-74
2022/08/28 13:08:02;;;;;;;;;;;;;;;;;;4915624;29;19931;-74
2022/08/28 13:10:30;;;;;;;;;;;;;;;;;;4916296;29;20391;-74
2022/08/28 13:12:57;;;;;;;;;;;;;;;;;;4919024;29;19931;-75
2022/08/28 13:15:29;;;;;;;;;;;;;;;;;;4920201;29;19931;-76
2022/08/28 13:17:57;;;;;;;;;;;;;;;;;;4920474;29;20429;-73
2022/08/28 13:20:24;;;;;;;;;;;;;;;;;;4917678;29;20218;-74
2022/08/28 13:22:51;;;;;;;;;;;;;;;;;;4908648;29;19931;-74
2022/08/28 13:25:19;;;;;;;;;;;;;;;;;;4915490;29;19932;-74
2022/08/28 13:27:46;;;;;;;;;;;;;;;;;;4897883;29;19999;-75
2022/08/28 13:30:18;;;;;;;;;;;;;;;;;;4919285;29;20391;-73
2022/08/28 13:32:46;;;;;;;;;;;;;;;;;;4914130;29;19927;-73
2022/08/28 13:35:15;;;;;;;;;;;;;;;;;;4923558;29;19931;-75
2022/08/28 13:37:43;;;;;;;;;;;;;;;;;;4921229;29;19962;-74
2022/08/28 13:40:10;;;;;;;;;;;;;;;;;;4920980;29;19938;-74
2022/08/28 13:42:56;;;;;;;;;;;;;;;;;;4913388;29;19931;-72
2022/08/28 13:45:24;;;;;;;;;;;;;;;;;;4919086;29;19930;-75
2022/08/28 13:47:51;;;;;;;;;;;;;;;;;;4921839;29;19935;-74
2022/08/28 13:50:19;;;;;;;;;;;;;;;;;;4923002;29;19942;-72
2022/08/28 13:52:46;;;;;;;;;;;;;;;;;;4915507;29;19934;-75
2022/08/28 13:55:13;;;;;;;;;;;;;;;;;;4916675;29;19935;-73
2022/08/28 13:57:41;;;;;;;;;;;;;;;;;;4911202;29;19935;-72
2022/08/28 14:00:08;;;;;;;;;;;;;;;;;;4911703;29;20026;-74
2022/08/28 14:05:43;;;;;;;;;;;;;;;;;;4916809;29;20009;-75
2022/08/28 14:08:13;;;;;;;;;;;;;;;;;;4884487;29;20415;-75
2022/08/28 14:10:40;;;;;;;;;;;;;;;;;;4914669;29;19931;-74
2022/08/28 14:13:08;;;;;;;;;;;;;;;;;;4914710;29;20050;-73
2022/08/28 14:15:35;;;;;;;;;;;;;;;;;;4918852;29;20144;-75
2022/08/28 14:18:03;;;;;;;;;;;;;;;;;;4918816;29;19931;-74
2022/08/28 14:20:31;;;;;;;;;;;;;;;;;;4915727;29;19957;-75
2022/08/28 14:22:58;;;;;;;;;;;;;;;;;;4917185;29;19937;-75
2022/08/28 14:25:25;;;;;;;;;;;;;;;;;;4898596;29;20371;-74
2022/08/28 14:27:54;;;;;;;;;;;;;;;;;;4915039;29;19954;-71
2022/08/28 14:30:22;;;;;;;;;;;;;;;;;;4914055;29;20401;-73
2022/08/28 14:32:50;;;;;;;;;;;;;;;;;;4915433;29;20399;-74
2022/08/28 14:35:17;;;;;;;;;;;;;;;;;;4909781;29;20490;-72
2022/08/28 14:37:44;;;;;;;;;;;;;;;;;;4912912;29;19938;-75
2022/08/28 14:40:12;;;;;;;;;;;;;;;;;;4897233;29;20407;-74
2022/08/28 14:42:40;;;;;;;;;;;;;;;;;;4911072;29;20310;-73
2022/08/28 14:45:08;;;;;;;;;;;;;;;;;;4910507;29;20524;-73
2022/08/28 14:47:38;;;;;;;;;;;;;;;;;;4914157;29;19927;-74
2022/08/28 14:50:05;;;;;;;;;;;;;;;;;;4914622;29;20021;-75
2022/08/28 14:52:32;;;;;;;;;;;;;;;;;;4914313;29;19963;-72
2022/08/28 14:55:00;;;;;;;;;;;;;;;;;;4873382;29;19931;-75
2022/08/28 14:57:28;;;;;;;;;;;;;;;;;;4884638;29;19959;-73
2022/08/28 14:59:55;;;;;;;;;;;;;;;;;;4899070;29;19931;-73
2022/08/28 15:02:22;;;;;;;;;;;;;;;;;;4919411;29;20057;-73
2022/08/28 15:04:50;;;;;;;;;;;;;;;;;;4909792;29;20456;-74
2022/08/28 15:07:20;;;;;;;;;;;;;;;;;;4911091;29;19927;-73
2022/08/28 15:09:47;;;;;;;;;;;;;;;;;;4923691;29;19977;-73
2022/08/28 15:12:15;;;;;;;;;;;;;;;;;;4909491;29;19971;-72
2022/08/28 15:14:43;;;;;;;;;;;;;;;;;;4911728;29;19938;-72
2022/08/28 15:17:22;;;;;;;;;;;;;;;;;;4904918;29;19938;-74
2022/08/28 15:19:49;;;;;;;;;;;;;;;;;;4907603;29;20017;-69
2022/08/28 15:22:17;;;;;;;;;;;;;;;;;;4906666;29;19935;-72
2022/08/28 15:24:53;;;;;;;;;;;;;;;;;;4909350;29;19935;-74
2022/08/28 15:27:22;;;;;;;;;;;;;;;;;;4910832;29;19990;-73
2022/08/28 15:29:49;;;;;;;;;;;;;;;;;;4908186;29;20307;-73
2022/08/28 15:32:17;;;;;;;;;;;;;;;;;;4910749;29;19983;-72
2022/08/28 15:34:44;;;;;;;;;;;;;;;;;;4910291;29;19928;-72
2022/08/28 15:37:11;;;;;;;;;;;;;;;;;;4905024;29;19935;-72
2022/08/28 15:42:30;;;;;;;;;;;;;;;;;;4902153;29;19955;-71
2022/08/28 15:44:57;;;;;;;;;;;;;;;;;;4911377;29;20776;-72
2022/08/28 15:47:25;;;;;;;;;;;;;;;;;;4898184;29;20024;-72
2022/08/28 15:49:52;;;;;;;;;;;;;;;;;;4908487;29;19935;-73
2022/08/28 15:52:19;;;;;;;;;;;;;;;;;;4905802;29;19934;-73
2022/08/28 15:54:47;;;;;;;;;;;;;;;;;;4908160;29;19931;-72
2022/08/28 15:57:14;;;;;;;;;;;;;;;;;;4907365;29;19935;-73
2022/08/28 15:59:42;;;;;;;;;;;;;;;;;;4906872;29;19935;-73
2022/08/28 16:02:16;;;;;;;;;;;;;;;;;;4910712;29;19927;-73
2022/08/28 16:04:43;;;;;;;;;;;;;;;;;;4911842;29;20322;-72
2022/08/28 16:07:11;;;;;;;;;;;;;;;;;;4910485;29;20406;-72
2022/08/28 16:09:38;;;;;;;;;;;;;;;;;;4909269;29;19927;-72
2022/08/28 16:12:06;;;;;;;;;;;;;;;;;;4907568;29;19931;-72
2022/08/28 16:14:33;;;;;;;;;;;;;;;;;;4912206;29;19955;-72
2022/08/28 16:17:01;;;;;;;;;;;;;;;;;;4911598;29;20307;-73
2022/08/28 16:19:32;;;;;;;;;;;;;;;;;;4910848;29;19935;-72
2022/08/28 16:21:59;;;;;;;;;;;;;;;;;;4909524;29;20026;-73
2022/08/28 16:24:27;;;;;;;;;;;;;;;;;;4906735;29;19938;-72
2022/08/28 16:26:54;;;;;;;;;;;;;;;;;;4906039;29;19934;-74
2022/08/28 16:29:21;;;;;;;;;;;;;;;;;;4915146;29;20496;-71
2022/08/28 16:31:48;;;;;;;;;;;;;;;;;;4912453;29;19978;-73
2022/08/28 16:34:16;;;;;;;;;;;;;;;;;;4910462;29;19939;-73
2022/08/28 16:36:49;;;;;;;;;;;;;;;;;;4910471;29;20673;-71
2022/08/28 16:39:16;;;;;;;;;;;;;;;;;;4913792;29;19931;-73
2022/08/28 16:41:48;;;;;;;;;;;;;;;;;;4910721;29;20675;-73
2022/08/28 16:44:16;;;;;;;;;;;;;;;;;;4913909;29;19927;-73
2022/08/28 16:46:44;;;;;;;;;;;;;;;;;;4914818;29;19931;-73
2022/08/28 16:49:11;;;;;;;;;;;;;;;;;;4911722;29;19927;-73
2022/08/28 16:51:39;;;;;;;;;;;;;;;;;;4910308;29;19939;-72
2022/08/28 16:54:06;;;;;;;;;;;;;;;;;;4909522;29;19927;-72
2022/08/28 16:56:34;;;;;;;;;;;;;;;;;;4908193;29;19927;-73
2022/08/28 16:59:01;;;;;;;;;;;;;;;;;;4907349;29;20352;-73
2022/08/28 17:01:28;;;;;;;;;;;;;;;;;;4902486;29;19927;-73